nws-alerts: Checking more than four warning/county codes can delay the loading of your pages. You should use a cron job to get the data.

Nearby METAR Reports

 

KMLE - Omaha/Millard, Nebraska, USA
Distance from station: NE 1mi, 2km
Updated: Sun, 13-Jun-2021 12:15am CDT
Clear
Clear
 Wind from calm
Wind: Calm
Temperature: 66°F , 19°C
Dew Point: 57°F , 14°C
Humidity: 73%
Barometer: 30.04 inHg , 1017.3 hPa
Clouds: Clear
Visibility: 10 miles , 16 km
2021/06/13 05:15 KMLE 130515Z AUTO 00000KT 10SM CLR 19/14 A3004 RMK AO2 T01900141
KOFF - Offutt Afb/Belle, Nebraska, USA
Distance from station: ESE 12mi, 20km
Updated: Sat, 12-Jun-2021 11:56pm CDT
Clear
Clear
 Wind from calm
Wind: Calm
Temperature: 70°F , 21°C
Dew Point: 57°F , 14°C
Humidity: 64%
Barometer: 30.04 inHg , 1017.3 hPa
Clouds: Clear
Visibility: 10 miles , 16 km
2021/06/13 04:56 KOFF 130456Z AUTO 00000KT 10SM CLR 21/14 A3004 RMK AO2 SLP170 T02080140 PWINO PNO FZRANO TSNO VISNO RWY12 CHINO RWY12 $
 
KOMA - Omaha/Eppley, Nebraska, USA
Distance from station: NE 15mi, 24km
Updated: Sat, 12-Jun-2021 11:52pm CDT
Clear
Clear
 Wind from calm
Wind: Calm
Temperature: 66°F , 19°C
Dew Point: 61°F , 16°C
Humidity: 83%
Barometer: 30.03 inHg , 1016.9 hPa
Clouds: Clear
Visibility: 10 miles , 16 km
2021/06/13 04:52 KOMA 130452Z 00000KT 10SM CLR 19/16 A3003 RMK AO2 SLP162 T01940156
KBTA - Blair Muni, Nebraska, USA
Distance from station: N 16mi, 25km
Updated: Sun, 13-Jun-2021 12:15am CDT
Clear
Clear
 Wind from NNW
Wind: NNW 5 mph , 7 km/h
Temperature: 70°F , 21°C
Dew Point: 48°F , 9°C
Humidity: 46%
Barometer: 30.05 inHg , 1017.6 hPa
Clouds: Clear
Visibility: 10 miles , 16 km
2021/06/13 05:15 KBTA 130515Z AUTO 33004KT 10SM CLR 21/09 A3005 RMK AO2 T02120092
 
KCBF - Council Bluffs, Iowa, USA
Distance from station: ENE 20mi, 32km
Updated: Sun, 13-Jun-2021 12:15am CDT
Clear
Clear
 Wind from calm
Wind: Calm
Temperature: 72°F , 22°C
Dew Point: 48°F , 9°C
Humidity: 44%
Barometer: 30.03 inHg , 1016.9 hPa
Clouds: Clear
Visibility: 10 miles , 16 km
2021/06/13 05:15 KCBF 130515Z AUTO 00000KT 10SM CLR 22/09 A3003 RMK AO2
KPMV - Plattsmouth Muni, Nebraska, USA
Distance from station: SE 20mi, 32km
Updated: Sun, 13-Jun-2021 12:15am CDT
Clear
Clear
 Wind from calm
Wind: Calm
Temperature: 72°F , 22°C
Dew Point: 54°F , 12°C
Humidity: 53%
Barometer: 30.05 inHg , 1017.6 hPa
Clouds: Clear
Visibility: 10 miles , 16 km
2021/06/13 05:15 KPMV 130515Z AUTO 00000KT 10SM CLR 22/12 A3005 RMK AO2 T02200121
 
KAHQ - Wahoo, Nebraska, USA
Distance from station: W 25mi, 40km
Updated: Sun, 13-Jun-2021 12:15am CDT
Clear
Clear
 Wind from calm
Wind: Calm
Temperature: 68°F , 20°C
Dew Point: 61°F , 16°C
Humidity: 78%
Barometer: 30.05 inHg , 1017.6 hPa
Clouds: Clear
Visibility: 10 miles , 16 km
2021/06/13 05:15 KAHQ 130515Z AUTO 00000KT 10SM CLR 20/16 A3005 RMK AO2 T01970155
KFET - Fremont Muni Arp, Nebraska, USA
Distance from station: NW 27mi, 43km
Updated: Sun, 13-Jun-2021 12:15am CDT
Clear
Clear
 Wind from calm
Wind: Calm
Temperature: 68°F , 20°C
Dew Point: 64°F , 18°C
Humidity: 88%
Barometer: 30.05 inHg , 1017.6 hPa
Clouds: Clear
Visibility: 10 miles , 16 km
2021/06/13 05:15 KFET 130515Z AUTO 00000KT 10SM CLR 20/18 A3005 RMK AO2 T01950175
 
KTQE - Tekamah, Nebraska, USA
Distance from station: N 40mi, 64km
Updated: Sat, 12-Jun-2021 11:54pm CDT
Clear
Clear
 Wind from NW
Wind: NW 3 mph , 6 km/h
Temperature: 64°F , 18°C
Dew Point: 57°F , 14°C
Humidity: 78%
Barometer: 30.03 inHg , 1016.9 hPa
Clouds: Clear
Visibility: 10 miles , 16 km
2021/06/13 04:54 KTQE 130454Z AUTO 31003KT 10SM CLR 18/14 A3003 RMK AO2 SLP158 T01780139
KLNK - Lincoln, Nebraska, USA
Distance from station: SW 41mi, 65km
Updated: Sat, 12-Jun-2021 11:54pm CDT
Clear
Clear
 Wind from N
Wind: N 3 mph , 6 km/h
Temperature: 63°F , 17°C
Dew Point: 57°F , 14°C
Humidity: 83%
Barometer: 30.05 inHg , 1017.6 hPa
Clouds: Clear
Visibility: 10 miles , 16 km
2021/06/13 04:54 KLNK 130454Z AUTO 35003KT 10SM CLR 17/14 A3005 RMK AO2 SLP168 T01670144
 
KAFK - Nebraska City, Nebraska, USA
Distance from station: SSE 43mi, 70km
Updated: Sun, 13-Jun-2021 12:15am CDT
Clear
Clear
 Wind from calm
Wind: Calm
Temperature: 73°F , 23°C
Dew Point: 50°F , 10°C
Humidity: 44%
Barometer: 30.04 inHg , 1017.3 hPa
Clouds: Clear
Visibility: 10 miles , 16 km
2021/06/13 05:15 KAFK 130515Z AUTO 00000KT 10SM CLR 23/10 A3004 RMK AO2 T02330100
KRDK - Red Oak, Iowa, USA
Distance from station: ESE 47mi, 75km
Updated: Sun, 13-Jun-2021 12:15am CDT
Clear
Clear
 Wind from calm
Wind: Calm
Temperature: 61°F , 16°C
Dew Point: 52°F , 11°C
Humidity: 72%
Barometer: 30.04 inHg , 1017.3 hPa
Clouds: Clear
Visibility: 10 miles , 16 km
2021/06/13 05:15 KRDK 130515Z AUTO 00000KT 10SM CLR 16/11 A3004 RMK AO2
 
KSDA - Shenandoah Muni, Iowa, USA
Distance from station: SE 48mi, 77km
Updated: Sun, 13-Jun-2021 12:15am CDT
Clear
Clear
 Wind from calm
Wind: Calm
Temperature: 63°F , 17°C
Dew Point: 57°F , 14°C
Humidity: 83%
Barometer: 30.02 inHg , 1016.6 hPa
Clouds: Clear
Visibility: 10 miles , 16 km
2021/06/13 05:15 KSDA 130515Z AUTO 00000KT 10SM CLR 17/14 A3002 RMK AO2
KHNR - Harlan Muni, Iowa, USA
Distance from station: NE 49mi, 80km
Updated: Sun, 13-Jun-2021 12:15am CDT
Clear
Clear
 Wind from calm
Wind: Calm
Temperature: 61°F , 16°C
Dew Point: 59°F , 15°C
Humidity: 94%
Barometer: 30.05 inHg , 1017.6 hPa
Clouds: Clear
Visibility: 10 miles , 16 km
2021/06/13 05:15 KHNR 130515Z AUTO 00000KT 10SM CLR 16/15 A3005 RMK A01